Time;durP1;ratioP1;P1;durP2;ratioP2;P2;SDS_P1;SDS_P2;PMS_P1;PMS_P2;Temp;Humidity;BMP_temperature;BMP_pressure;BME280_temperature;BME280_humidity;BME280_pressure;Samples;Min_cycle;Max_cycle;Signal;HPM_P1;HPM_P2
2022/02/07 00:00:44;;;;;;;1.85;0.35;;;;;;;3.61;100.00;99005.44;5225387;28;20035;-80
2022/02/07 00:05:45;;;;;;;2.13;0.45;;;;;;;3.51;100.00;99007.56;5227128;28;20024;-79
2022/02/07 00:08:16;;;;;;;2.22;0.47;;;;;;;3.52;100.00;99006.66;5228278;28;20059;-79
2022/02/07 00:10:46;;;;;;;4.15;0.50;;;;;;;3.62;100.00;99007.13;5229477;28;20044;-79
2022/02/07 00:13:16;;;;;;;4.32;0.60;;;;;;;3.60;100.00;99011.50;5224311;28;20032;-80
2022/02/07 00:15:47;;;;;;;4.22;0.60;;;;;;;3.67;100.00;99012.16;5229458;28;20087;-79
2022/02/07 00:18:17;;;;;;;1.92;0.50;;;;;;;3.73;100.00;99017.97;5230210;28;20591;-80
2022/02/07 00:20:48;;;;;;;4.95;0.52;;;;;;;3.68;100.00;99014.72;5233290;28;20058;-79
2022/02/07 00:23:19;;;;;;;6.57;0.82;;;;;;;3.72;100.00;99031.78;5232002;28;20130;-80
2022/02/07 00:25:49;;;;;;;5.47;1.08;;;;;;;3.70;100.00;99036.16;5230357;28;20095;-80
2022/02/07 00:28:20;;;;;;;3.10;0.70;;;;;;;3.66;100.00;99039.75;5226769;28;20040;-80
2022/02/07 00:30:50;;;;;;;2.85;0.73;;;;;;;3.59;100.00;99050.31;5224103;28;20024;-80
2022/02/07 00:33:20;;;;;;;3.00;0.55;;;;;;;3.50;100.00;99052.34;5225997;28;20084;-80
2022/02/07 00:35:51;;;;;;;5.35;1.10;;;;;;;3.48;100.00;99061.84;5226212;28;20051;-79
2022/02/07 00:38:22;;;;;;;2.97;0.98;;;;;;;3.42;100.00;99067.22;5228881;28;20387;-80
2022/02/07 00:41:15;;;;;;;6.18;1.00;;;;;;;3.34;100.00;99059.72;5225996;28;20021;-79
2022/02/07 00:43:52;;;;;;;4.68;1.40;;;;;;;3.28;100.00;99064.22;5226764;28;20366;-79
2022/02/07 00:46:31;;;;;;;4.68;1.08;;;;;;;3.26;100.00;99071.16;5229016;28;20035;-79
2022/02/07 00:49:01;;;;;;;2.80;0.90;;;;;;;3.20;100.00;99082.50;5226001;28;20079;-79
2022/02/07 00:51:32;;;;;;;3.05;0.80;;;;;;;3.16;100.00;99085.25;5228161;28;20091;-80
2022/02/07 00:54:02;;;;;;;1.77;0.60;;;;;;;3.13;100.00;99085.31;5227497;28;20036;-79
2022/02/07 00:56:32;;;;;;;3.05;0.70;;;;;;;3.11;100.00;99105.16;5228373;28;20048;-79
2022/02/07 00:59:04;;;;;;;2.58;0.70;;;;;;;3.01;100.00;99106.34;5226293;28;20406;-80
2022/02/07 01:01:35;;;;;;;5.05;0.90;;;;;;;2.97;100.00;99112.47;5226725;28;20025;-80
2022/02/07 01:04:05;;;;;;;3.30;0.52;;;;;;;2.96;100.00;99115.94;5228027;28;20432;-79
2022/02/07 01:06:35;;;;;;;4.75;0.70;;;;;;;2.98;100.00;99127.03;5227084;28;20032;-79
2022/02/07 01:09:13;;;;;;;4.20;0.80;;;;;;;2.97;100.00;99135.69;5228684;28;20108;-80
2022/02/07 01:14:58;;;;;;;3.63;0.80;;;;;;;2.90;100.00;99140.19;5231168;28;20032;-80
2022/02/07 01:23:07;;;;;;;3.95;0.93;;;;;;;2.92;100.00;99163.34;5218926;28;20048;-80
2022/02/07 01:51:04;;;;;;;1.63;0.70;;;;;;;3.07;100.00;99259.25;5225905;28;20052;-80
2022/02/07 01:53:55;;;;;;;6.28;1.63;;;;;;;3.18;100.00;99259.78;5224645;28;20036;-79
2022/02/07 01:56:29;;;;;;;2.55;1.00;;;;;;;3.09;100.00;99270.38;5225766;28;20441;-79
2022/02/07 01:58:59;;;;;;;3.03;0.68;;;;;;;3.20;100.00;99280.41;5226468;28;20031;-80
2022/02/07 02:01:29;;;;;;;5.70;0.90;;;;;;;3.18;100.00;99279.59;5225957;28;20356;-79
2022/02/07 02:03:59;;;;;;;2.10;1.10;;;;;;;3.10;100.00;99287.53;5227439;28;20025;-79
2022/02/07 02:06:30;;;;;;;6.18;0.88;;;;;;;3.00;100.00;99288.66;5230152;28;20100;-79
2022/02/07 02:09:02;;;;;;;3.15;0.80;;;;;;;2.95;100.00;99287.09;5231790;28;20475;-79
2022/02/07 02:11:35;;;;;;;5.82;0.55;;;;;;;2.88;100.00;99301.03;5231250;28;20059;-80
2022/02/07 02:20:34;;;;;;;1.80;0.68;;;;;;;2.93;100.00;99331.00;5231903;28;20024;-79
2022/02/07 02:37:10;;;;;;;6.43;0.80;;;;;;;2.89;100.00;99386.09;5232088;28;20483;-79
2022/02/07 02:45:38;;;;;;;5.72;0.80;;;;;;;3.08;100.00;99427.81;5180071;28;20033;-80
2022/02/07 02:48:17;;;;;;;9.35;0.88;;;;;;;2.92;100.00;99432.50;5225044;28;20098;-80
2022/02/07 02:50:51;;;;;;;4.68;0.93;;;;;;;2.99;100.00;99443.53;5235783;28;20021;-79
2022/02/07 02:53:22;;;;;;;6.00;1.00;;;;;;;2.92;100.00;99449.69;5227844;28;20510;-80
2022/02/07 02:55:53;;;;;;;9.88;1.63;;;;;;;2.97;100.00;99466.75;5224544;28;20025;-79
2022/02/07 02:58:24;;;;;;;6.28;1.25;;;;;;;2.99;100.00;99477.06;5232427;28;20039;-80
2022/02/07 03:00:55;;;;;;;5.00;1.08;;;;;;;3.01;100.00;99478.69;5228899;28;20128;-79
2022/02/07 03:03:25;;;;;;;11.85;1.13;;;;;;;2.98;100.00;99473.63;5227288;28;20025;-79
2022/02/07 03:05:56;;;;;;;5.90;0.80;;;;;;;2.99;100.00;99479.63;5232637;28;20036;-80
2022/02/07 03:08:26;;;;;;;7.55;1.45;;;;;;;3.02;100.00;99495.06;5234706;28;20102;-80
2022/02/07 03:11:04;;;;;;;3.22;1.02;;;;;;;3.03;100.00;99494.16;5231420;28;20649;-80
2022/02/07 03:13:47;;;;;;;4.40;0.80;;;;;;;3.05;100.00;99500.13;5231839;28;20400;-79
2022/02/07 03:16:39;;;;;;;4.22;0.85;;;;;;;3.03;100.00;99502.72;5232336;28;20032;-79
2022/02/07 03:19:15;;;;;;;8.02;1.10;;;;;;;2.99;100.00;99513.19;5231223;28;20089;-80
2022/02/07 03:21:45;;;;;;;3.67;0.88;;;;;;;3.14;100.00;99521.41;5232350;28;20039;-80
2022/02/07 03:24:16;;;;;;;7.82;0.80;;;;;;;3.12;100.00;99537.81;5222940;28;20025;-80
2022/02/07 03:26:46;;;;;;;5.00;1.13;;;;;;;3.12;100.00;99527.47;5230292;28;20035;-80
2022/02/07 03:29:16;;;;;;;9.13;1.02;;;;;;;3.11;100.00;99534.38;5230997;28;20074;-80
2022/02/07 03:31:47;;;;;;;3.00;1.00;;;;;;;3.11;100.00;99547.28;5225596;28;20017;-80
2022/02/07 03:34:17;;;;;;;5.28;0.93;;;;;;;3.25;100.00;99552.13;5230783;28;20696;-80
2022/02/07 03:36:47;;;;;;;4.60;0.90;;;;;;;3.26;100.00;99559.00;5231113;28;20033;-80
2022/02/07 03:39:18;;;;;;;4.18;1.00;;;;;;;3.20;100.00;99562.56;5234794;28;20056;-80
2022/02/07 03:41:48;;;;;;;6.32;1.05;;;;;;;3.19;100.00;99563.44;5230656;28;20513;-80
2022/02/07 03:44:18;;;;;;;6.15;1.20;;;;;;;3.23;100.00;99566.81;5234534;28;20021;-80
2022/02/07 03:46:49;;;;;;;7.45;1.05;;;;;;;3.18;100.00;99566.91;5230989;28;20104;-80
2022/02/07 03:49:19;;;;;;;8.48;0.98;;;;;;;3.18;100.00;99581.56;5234241;28;20479;-80
2022/02/07 03:51:49;;;;;;;5.57;1.05;;;;;;;3.16;100.00;99588.50;5231057;28;20024;-80
2022/02/07 03:54:19;;;;;;;7.47;1.08;;;;;;;3.16;100.00;99585.91;5221982;28;20075;-81
2022/02/07 03:56:50;;;;;;;3.15;0.75;;;;;;;3.07;100.00;99596.41;5230457;28;20024;-80
2022/02/07 03:59:20;;;;;;;4.78;0.77;;;;;;;3.06;100.00;99605.88;5231300;28;20093;-80
2022/02/07 04:01:50;;;;;;;4.03;1.00;;;;;;;3.09;100.00;99599.81;5224611;28;20051;-80
2022/02/07 04:04:21;;;;;;;6.47;1.35;;;;;;;3.07;100.00;99609.31;5230472;28;20059;-80
2022/02/07 04:06:52;;;;;;;4.88;1.08;;;;;;;3.07;100.00;99622.22;5229804;28;20025;-80
2022/02/07 04:09:27;;;;;;;9.43;1.40;;;;;;;3.02;100.00;99618.91;5226326;28;20043;-80
2022/02/07 04:12:05;;;;;;;;;;;;;;;3.06;100.00;99623.94;5234174;28;20100;-80
2022/02/07 04:14:35;;;;;;;2.13;0.85;;;;;;;3.09;100.00;99626.50;5234860;28;19946;-80
2022/02/07 04:17:09;;;;;;;3.55;1.08;;;;;;;3.06;100.00;99636.84;5231834;28;20136;-80
2022/02/07 04:19:40;;;;;;;3.92;1.05;;;;;;;3.12;100.00;99648.78;5231699;28;20039;-80
2022/02/07 04:22:11;;;;;;;3.00;0.98;;;;;;;3.12;100.00;99661.69;5229622;28;20471;-80
2022/02/07 04:24:41;;;;;;;4.82;0.70;;;;;;;3.16;100.00;99677.09;5221547;28;20036;-80
2022/02/07 04:27:11;;;;;;;9.02;1.05;;;;;;;3.15;100.00;99661.63;5228083;28;20086;-80
2022/02/07 04:29:42;;;;;;;3.53;0.93;;;;;;;3.10;100.00;99681.50;5232618;28;20131;-80
2022/02/07 04:32:12;;;;;;;5.25;0.88;;;;;;;3.06;100.00;99680.72;5220353;28;20576;-80
2022/02/07 04:34:42;;;;;;;6.28;0.90;;;;;;;3.03;100.00;99685.09;5229752;28;20389;-80
2022/02/07 04:37:13;;;;;;;4.22;0.90;;;;;;;2.98;100.00;99682.59;5232913;28;20024;-80
2022/02/07 04:39:43;;;;;;;3.55;0.70;;;;;;;3.08;100.00;99697.03;5231123;28;20025;-81
2022/02/07 04:42:14;;;;;;;6.68;0.95;;;;;;;2.97;100.00;99716.16;5230844;28;20449;-80
2022/02/07 04:44:57;;;;;;;4.78;0.90;;;;;;;2.79;100.00;99725.13;5231039;28;20636;-80
2022/02/07 04:55:45;;;;;;;6.32;1.35;;;;;;;2.59;100.00;99741.81;5222421;28;20094;-80
2022/02/07 05:01:28;;;;;;;3.22;0.93;;;;;;;2.69;100.00;99762.25;5221417;28;20033;-80
2022/02/07 05:04:06;;;;;;;3.47;0.90;;;;;;;2.76;100.00;99757.84;5232385;28;20033;-80
2022/02/07 05:15:04;;;;;;;4.38;1.00;;;;;;;2.87;100.00;99780.00;5227359;28;20032;-80
2022/02/07 05:17:37;;;;;;;3.22;0.73;;;;;;;2.89;100.00;99792.88;5229839;28;20033;-80
2022/02/07 05:20:09;;;;;;;7.72;1.15;;;;;;;2.80;100.00;99793.03;5231317;28;20032;-80
2022/02/07 05:22:40;;;;;;;6.75;1.17;;;;;;;2.80;100.00;99808.50;5228833;28;20652;-80
2022/02/07 05:25:10;;;;;;;7.07;1.15;;;;;;;2.70;100.00;99827.59;5219810;28;20028;-80
2022/02/07 05:27:40;;;;;;;9.88;1.42;;;;;;;2.76;100.00;99827.50;5230543;28;20032;-80
2022/02/07 05:30:11;;;;;;;6.32;1.10;;;;;;;2.86;100.00;99834.22;5228155;28;20479;-80
2022/02/07 05:32:42;;;;;;;4.75;1.10;;;;;;;2.98;100.00;99828.81;5220304;28;20033;-80
2022/02/07 05:35:12;;;;;;;9.70;1.75;;;;;;;3.02;100.00;99833.91;5231561;28;20035;-80
2022/02/07 05:37:43;;;;;;;6.30;0.82;;;;;;;3.13;100.00;99864.69;5228631;28;20128;-81
2022/02/07 05:40:26;;;;;;;8.93;1.40;;;;;;;3.21;100.00;99891.25;5234247;28;20035;-80
2022/02/07 05:42:56;;;;;;;4.15;0.88;;;;;;;3.29;100.00;99897.97;5229250;28;20024;-80
2022/02/07 05:45:27;;;;;;;14.27;1.13;;;;;;;3.33;100.00;99909.09;5236399;28;20029;-80
2022/02/07 05:47:57;;;;;;;8.60;0.90;;;;;;;3.39;100.00;99919.31;5231491;28;20031;-80
2022/02/07 05:50:27;;;;;;;5.95;0.77;;;;;;;3.43;100.00;99921.81;5230580;28;20082;-81
2022/02/07 05:52:58;;;;;;;8.30;1.00;;;;;;;3.52;100.00;99941.47;5229084;28;20029;-80
2022/02/07 05:55:29;;;;;;;5.75;0.90;;;;;;;3.52;100.00;99941.47;5225304;28;20058;-80
2022/02/07 05:57:59;;;;;;;4.38;0.90;;;;;;;3.53;100.00;99948.34;5235828;28;20425;-80
2022/02/07 06:00:33;;;;;;;5.00;1.45;;;;;;;3.59;100.00;99968.00;5231345;28;20025;-80
2022/02/07 06:03:04;;;;;;;6.15;1.20;;;;;;;3.62;100.00;99970.53;5225815;28;20033;-81
2022/02/07 06:05:34;;;;;;;7.95;0.93;;;;;;;3.65;100.00;99980.81;5234856;28;20032;-80
2022/02/07 06:08:05;;;;;;;8.10;1.17;;;;;;;3.69;100.00;99987.66;5234446;28;20032;-80
2022/02/07 06:10:35;;;;;;;12.68;1.33;;;;;;;3.74;100.00;99990.13;5233707;28;20510;-80
2022/02/07 06:13:11;;;;;;;8.88;1.33;;;;;;;3.77;100.00;100009.03;5232275;28;20021;-80
2022/02/07 06:15:41;;;;;;;11.85;1.77;;;;;;;3.80;100.00;100016.72;5235404;28;20783;-80
2022/02/07 06:18:15;;;;;;;9.35;1.92;;;;;;;3.83;100.00;100015.81;5234444;28;20047;-80
2022/02/07 06:20:48;;;;;;;9.30;1.75;;;;;;;3.86;100.00;100032.13;5236186;28;20093;-81
2022/02/07 06:23:18;;;;;;;7.13;1.25;;;;;;;3.86;100.00;100024.38;5225018;28;20458;-80
2022/02/07 06:25:49;;;;;;;11.27;1.65;;;;;;;3.92;100.00;100037.19;5228169;28;20063;-79
2022/02/07 06:28:19;;;;;;;12.20;1.95;;;;;;;3.86;100.00;100042.47;5236350;28;20032;-80
2022/02/07 06:30:49;;;;;;;10.38;1.42;;;;;;;3.85;100.00;100045.94;5227138;28;20040;-80
2022/02/07 06:33:20;;;;;;;8.00;1.23;;;;;;;3.91;100.00;100051.00;5226951;28;20050;-79
2022/02/07 06:35:50;;;;;;;14.05;1.52;;;;;;;3.93;100.00;100062.16;5233083;28;20025;-80
2022/02/07 06:38:21;;;;;;;9.18;1.83;;;;;;;3.88;100.00;100069.13;5232561;28;20033;-80
2022/02/07 06:40:51;;;;;;;15.10;1.60;;;;;;;3.80;100.00;100070.97;5230623;28;20036;-79
2022/02/07 06:43:21;;;;;;;10.20;1.67;;;;;;;3.84;100.00;100085.56;5227739;28;20119;-79
2022/02/07 06:45:52;;;;;;;11.35;1.42;;;;;;;3.83;100.00;100099.38;5235961;28;20410;-79
2022/02/07 06:48:22;;;;;;;15.38;1.90;;;;;;;3.85;100.00;100099.34;5232402;28;20025;-79
2022/02/07 06:50:53;;;;;;;10.98;1.65;;;;;;;3.82;100.00;100107.97;5235004;28;20028;-79
2022/02/07 06:53:23;;;;;;;10.73;1.75;;;;;;;3.83;100.00;100116.59;5227644;28;20024;-79
2022/02/07 06:55:53;;;;;;;14.43;1.77;;;;;;;3.82;100.00;100126.06;5228482;28;20028;-79
2022/02/07 06:58:24;;;;;;;11.32;1.70;;;;;;;3.83;100.00;100122.63;5232428;28;20433;-79
2022/02/07 07:00:54;;;;;;;14.30;1.38;;;;;;;3.80;100.00;100130.41;5229880;28;20025;-79
2022/02/07 07:03:25;;;;;;;12.48;2.40;;;;;;;3.90;100.00;100141.44;5227879;28;20040;-79
2022/02/07 07:05:55;;;;;;;7.50;1.70;;;;;;;3.80;100.00;100156.25;5232361;28;20029;-79
2022/02/07 07:08:26;;;;;;;12.20;1.25;;;;;;;3.90;100.00;100152.66;5235872;28;20021;-80
2022/02/07 07:10:59;;;;;;;13.77;1.98;;;;;;;3.91;100.00;100164.72;5232158;28;20035;-79
2022/02/07 07:13:38;;;;;;;9.27;1.58;;;;;;;3.92;100.00;100175.91;5231596;28;20100;-79
2022/02/07 07:16:37;;;;;;;7.95;1.70;;;;;;;3.95;100.00;100175.84;5233880;28;20158;-79
2022/02/07 07:19:05;;;;;;;14.18;1.50;;;;;;;3.98;100.00;100192.16;5230412;28;20037;-79
2022/02/07 07:21:35;;;;;;;12.02;1.88;;;;;;;4.02;100.00;100204.19;5234235;28;20029;-79
2022/02/07 07:24:06;;;;;;;13.07;1.75;;;;;;;4.01;100.00;100212.81;5232664;28;20029;-80
2022/02/07 07:26:36;;;;;;;10.02;1.45;;;;;;;4.02;100.00;100214.53;5234491;28;20039;-79
2022/02/07 07:29:11;;;;;;;13.20;1.50;;;;;;;3.99;100.00;100218.88;5233928;28;20478;-79
2022/02/07 07:31:50;;;;;;;9.85;1.48;;;;;;;3.96;100.00;100227.50;5225991;28;20016;-79
2022/02/07 07:34:22;;;;;;;9.20;1.20;;;;;;;3.95;100.00;100224.97;5232473;28;20040;-79
2022/02/07 07:36:53;;;;;;;11.20;1.42;;;;;;;3.97;100.00;100231.81;5235777;28;20024;-79
2022/02/07 07:39:23;;;;;;;7.05;1.38;;;;;;;4.00;100.00;100236.94;5227619;28;20064;-79
2022/02/07 07:41:55;;;;;;;10.70;1.40;;;;;;;4.09;100.00;100251.47;5235392;28;20125;-79
2022/02/07 07:44:30;;;;;;;7.90;1.25;;;;;;;4.05;100.00;100265.31;5231973;28;20032;-79
2022/02/07 07:47:08;;;;;;;11.48;1.35;;;;;;;4.15;100.00;100278.06;5234207;28;20655;-79
2022/02/07 07:49:48;;;;;;;8.95;1.52;;;;;;;4.17;100.00;100281.50;5233773;28;20525;-79
2022/02/07 07:52:30;;;;;;;8.80;1.48;;;;;;;4.21;100.00;100308.16;5232760;28;20059;-79
2022/02/07 07:55:25;;;;;;;8.77;1.52;;;;;;;4.21;100.00;100314.19;5220221;28;20033;-79
2022/02/07 08:03:39;;;;;;;5.88;1.10;;;;;;;4.17;100.00;100314.25;5225040;28;20042;-79
2022/02/07 08:06:20;;;;;;;5.28;0.85;;;;;;;4.19;100.00;100328.88;5232949;28;20029;-79
2022/02/07 08:09:15;;;;;;;6.90;1.48;;;;;;;4.23;100.00;100335.72;5229718;28;20027;-79
2022/02/07 08:11:42;;;;;;;5.40;0.80;;;;;;;5.35;100.00;100343.34;5230884;28;20037;-79
2022/02/07 08:14:12;;;;;;;5.18;1.20;;;;;;;5.88;100.00;100341.47;5233267;28;20020;-80
2022/02/07 08:16:43;;;;;;;8.55;1.10;;;;;;;6.18;100.00;100348.59;5231948;28;20469;-80
2022/02/07 08:19:13;;;;;;;5.72;1.00;;;;;;;6.81;95.80;100349.75;5233404;28;20036;-80
2022/02/07 08:21:43;;;;;;;5.38;1.05;;;;;;;6.94;93.73;100356.31;5233281;28;20113;-80
2022/02/07 08:24:13;;;;;;;11.40;1.25;;;;;;;7.57;90.56;100371.16;5231594;28;20029;-80
2022/02/07 08:26:45;;;;;;;4.18;0.90;;;;;;;7.54;90.16;100360.81;5233031;28;20043;-80
2022/02/07 08:29:15;;;;;;;8.80;1.10;;;;;;;8.00;88.77;100376.00;5226524;28;20028;-80
2022/02/07 08:31:45;;;;;;;10.43;1.40;;;;;;;8.34;87.85;100367.22;5228581;28;20104;-80
2022/02/07 08:34:16;;;;;;;6.82;1.30;;;;;;;8.29;86.74;100363.91;5229468;28;20031;-80
2022/02/07 08:36:46;;;;;;;9.43;1.75;;;;;;;8.78;84.83;100373.66;5232549;28;20021;-80
2022/02/07 08:39:16;;;;;;;6.30;1.33;;;;;;;9.25;84.30;100369.47;5229813;28;20028;-80
2022/02/07 08:41:47;;;;;;;8.50;1.40;;;;;;;8.67;84.04;100387.03;5232699;28;20052;-80
2022/02/07 08:44:17;;;;;;;10.75;2.00;;;;;;;9.59;81.41;100383.06;5232764;28;20283;-80
2022/02/07 08:46:48;;;;;;;10.82;1.95;;;;;;;8.49;83.54;100397.13;5231029;28;20024;-80
2022/02/07 08:49:18;;;;;;;10.88;1.73;;;;;;;8.71;84.86;100400.81;5231819;28;20078;-80
2022/02/07 08:51:49;;;;;;;9.00;1.50;;;;;;;8.99;83.82;100405.13;5230863;28;20040;-80
2022/02/07 08:54:26;;;;;;;8.00;2.10;;;;;;;8.98;82.54;100426.88;5233467;28;20395;-80
2022/02/07 08:57:12;;;;;;;12.30;1.70;;;;;;;8.00;86.66;100441.91;5226670;28;20035;-80
2022/02/07 08:59:56;;;;;;;7.85;1.42;;;;;;;8.02;87.85;100436.69;5231691;28;20441;-80
2022/02/07 09:05:33;;;;;;;9.20;1.70;;;;;;;8.45;86.42;100463.22;5232805;28;20753;-80
2022/02/07 09:08:20;;;;;;;9.63;1.75;;;;;;;7.54;90.38;100464.81;5228947;28;20031;-80
2022/02/07 09:10:52;;;;;;;11.27;1.90;;;;;;;7.47;90.95;100475.41;5230324;28;20114;-80
2022/02/07 09:13:29;;;;;;;12.18;1.83;;;;;;;7.28;93.44;100488.00;5229519;28;20025;-80
2022/02/07 09:16:15;;;;;;;10.63;2.05;;;;;;;6.54;95.50;100492.28;5227474;28;20037;-80
2022/02/07 09:18:48;;;;;;;8.38;1.85;;;;;;;6.07;99.00;100493.22;5230915;28;20499;-80
2022/02/07 09:21:18;;;;;;;10.70;2.50;;;;;;;5.84;99.69;100518.75;5233184;28;20025;-80
2022/02/07 09:23:49;;;;;;;16.63;2.10;;;;;;;5.89;99.91;100527.28;5229649;28;20360;-80
2022/02/07 09:26:19;;;;;;;11.20;1.95;;;;;;;5.75;100.00;100525.78;5233228;28;20055;-80
2022/02/07 09:28:50;;;;;;;9.70;1.25;;;;;;;5.53;100.00;100530.47;5230775;28;20036;-80
2022/02/07 09:31:21;;;;;;;11.02;1.95;;;;;;;5.48;100.00;100537.47;5225790;28;20013;-79
2022/02/07 09:33:53;;;;;;;9.68;2.60;;;;;;;5.54;100.00;100552.06;5223800;28;20021;-79
2022/02/07 09:36:25;;;;;;;9.00;2.10;;;;;;;5.47;100.00;100555.63;5225621;28;20027;-80
2022/02/07 09:38:56;;;;;;;10.95;2.22;;;;;;;5.51;100.00;100552.97;5222813;28;20036;-80
2022/02/07 09:41:31;;;;;;;23.20;6.05;;;;;;;5.51;100.00;100567.63;5230173;28;20028;-79
2022/02/07 09:44:05;;;;;;;12.30;2.03;;;;;;;5.49;100.00;100564.22;5229577;28;20059;-80
2022/02/07 09:46:45;;;;;;;10.82;2.70;;;;;;;5.43;100.00;100572.94;5230852;28;20403;-79
2022/02/07 09:49:22;;;;;;;11.68;2.55;;;;;;;5.49;100.00;100580.63;5232033;28;20025;-80
2022/02/07 09:51:53;;;;;;;19.25;2.30;;;;;;;5.52;100.00;100585.78;5228421;28;20099;-80
2022/02/07 09:54:23;;;;;;;15.55;3.05;;;;;;;5.56;99.51;100591.78;5222798;28;20036;-79
2022/02/07 09:56:54;;;;;;;15.48;2.33;;;;;;;5.45;99.00;100601.44;5232202;28;20054;-80
2022/02/07 09:59:28;;;;;;;12.57;2.22;;;;;;;5.42;98.38;100624.81;5229057;28;20112;-79
2022/02/07 10:02:02;;;;;;;16.67;2.70;;;;;;;5.44;99.31;100621.28;5222584;28;20633;-80
2022/02/07 10:04:40;;;;;;;17.55;2.08;;;;;;;5.48;100.00;100629.88;5228600;28;20048;-80
2022/02/07 10:10:15;;;;;;;21.60;3.05;;;;;;;5.26;100.00;100646.63;5230132;28;20393;-79
2022/02/07 10:13:05;;;;;;;19.50;2.30;;;;;;;5.30;100.00;100661.22;5230109;28;20028;-77
2022/02/07 10:15:54;;;;;;;13.45;2.42;;;;;;;5.69;100.00;100665.88;5229639;28;20032;-79
2022/02/07 10:21:28;;;;;;;17.65;2.53;;;;;;;5.91;98.50;100678.53;5234632;28;20211;-80
2022/02/07 10:38:42;;;;;;;27.40;4.60;;;;;;;6.15;96.32;100709.28;5223752;28;20106;-80
2022/02/07 10:43:56;;;;;;;12.27;2.28;;;;;;;6.35;95.63;100728.00;5230894;28;20040;-81
2022/02/07 10:46:31;;;;;;;20.27;4.72;;;;;;;6.46;94.93;100717.44;5227858;28;20138;-80
2022/02/07 10:49:08;;;;;;;20.70;3.53;;;;;;;6.56;93.48;100712.06;5235188;28;20024;-83
2022/02/07 10:51:39;;;;;;;14.95;2.92;;;;;;;6.67;93.20;100730.03;5233510;28;20033;-83
2022/02/07 10:54:11;;;;;;;19.55;3.03;;;;;;;6.82;93.79;100721.97;5232541;28;20500;-80
2022/02/07 10:56:45;;;;;;;22.23;2.97;;;;;;;6.68;93.33;100736.94;5233006;28;20070;-83
2022/02/07 10:59:18;;;;;;;16.55;2.75;;;;;;;6.47;92.01;100733.00;5233174;28;20487;-83
2022/02/07 11:04:29;;;;;;;12.88;1.98;;;;;;;6.37;92.54;100733.13;5236937;28;20502;-79
2022/02/07 11:07:02;;;;;;;18.60;2.38;;;;;;;6.42;92.95;100739.13;5229333;28;20392;-83
2022/02/07 11:09:57;;;;;;;24.75;2.90;;;;;;;6.46;93.33;100730.41;5231605;28;20032;-82
2022/02/07 11:15:14;;;;;;;21.35;3.38;;;;;;;6.49;91.83;100746.81;5230473;28;20195;-80
2022/02/07 11:21:16;;;;;;;24.10;3.17;;;;;;;6.84;90.13;100753.97;5175694;28;20052;-81
2022/02/07 11:24:29;;;;;;;22.48;3.55;;;;;;;6.85;89.88;100766.06;5178283;28;20127;-81
2022/02/07 11:27:24;;;;;;;17.48;2.40;;;;;;;6.87;89.68;100752.19;5226334;28;20033;-80
2022/02/07 11:29:56;;;;;;;15.82;2.67;;;;;;;6.78;89.37;100759.28;5219821;28;20210;-83
2022/02/07 11:32:46;;;;;;;10.80;1.63;;;;;;;6.42;87.16;100759.91;5223366;28;20041;-81
2022/02/07 11:35:18;;;;;;;14.90;1.77;;;;;;;6.26;85.18;100761.03;5233403;28;20020;-81
2022/02/07 11:37:52;;;;;;;14.48;2.08;;;;;;;6.17;84.91;100755.94;5229318;28;20029;-82
2022/02/07 11:40:27;;;;;;;9.40;1.58;;;;;;;5.96;85.17;100761.47;5235240;28;20352;-81
2022/02/07 11:43:20;;;;;;;8.07;1.25;;;;;;;5.79;85.96;100766.03;5227847;28;20029;-82
2022/02/07 11:46:05;;;;;;;10.57;1.60;;;;;;;5.57;88.60;100780.09;5231171;28;20033;-80
2022/02/07 11:48:48;;;;;;;10.40;2.00;;;;;;;5.46;89.41;100785.41;5230082;28;20028;-82
2022/02/07 11:51:21;;;;;;;12.00;1.80;;;;;;;5.18;91.21;100800.41;5230120;28;20053;-81
2022/02/07 11:54:02;;;;;;;8.02;1.30;;;;;;;5.06;93.03;100803.13;5234457;28;20066;-82
2022/02/07 12:02:02;;;;;;;5.90;1.30;;;;;;;5.13;96.07;100822.94;5231645;28;20082;-80
2022/02/07 12:04:44;;;;;;;7.07;1.10;;;;;;;5.31;95.64;100818.41;5231849;28;20017;-80
2022/02/07 12:07:14;;;;;;;7.55;1.60;;;;;;;5.39;96.01;100820.03;5231699;28;20032;-81
2022/02/07 12:09:58;;;;;;;9.23;2.22;;;;;;;5.42;94.24;100812.22;5232114;28;20402;-80
2022/02/07 12:12:45;;;;;;;11.32;1.67;;;;;;;5.53;94.61;100814.69;5227943;28;20031;-80
2022/02/07 12:15:36;;;;;;;8.63;1.17;;;;;;;5.69;94.01;100832.66;5231944;28;20028;-81
2022/02/07 12:18:12;;;;;;;12.63;1.60;;;;;;;5.87;94.04;100823.81;5232609;28;20095;-81
2022/02/07 12:20:45;;;;;;;9.50;1.73;;;;;;;5.92;92.95;100830.66;5228733;28;20980;-81
2022/02/07 12:23:19;;;;;;;11.13;1.58;;;;;;;6.04;93.61;100835.69;5226856;28;20086;-80
2022/02/07 12:26:00;;;;;;;12.88;2.10;;;;;;;6.15;92.94;100832.97;5225948;28;20033;-80
2022/02/07 12:28:42;;;;;;;7.78;1.60;;;;;;;6.24;90.37;100832.84;5228074;28;20025;-81
2022/02/07 12:31:21;;;;;;;19.10;4.88;;;;;;;6.34;88.46;100829.22;5219378;28;20044;-82
2022/02/07 12:34:10;;;;;;;14.98;2.70;;;;;;;6.54;87.23;100847.94;5226324;28;20368;-80
2022/02/07 12:36:41;;;;;;;15.82;2.15;;;;;;;6.61;87.12;100844.41;5226235;28;20043;-80
2022/02/07 12:39:15;;;;;;;10.50;1.92;;;;;;;6.63;87.17;100837.44;5224964;28;20017;-83
2022/02/07 12:41:46;;;;;;;13.02;1.80;;;;;;;6.47;86.10;100846.34;5226064;28;20043;-80
2022/02/07 12:44:22;;;;;;;11.55;1.95;;;;;;;6.26;88.48;100872.59;5221546;28;20355;-81
2022/02/07 12:46:54;;;;;;;9.95;1.55;;;;;;;6.01;90.87;100918.75;5229305;28;20174;-80
2022/02/07 12:49:26;;;;;;;8.57;1.60;;;;;;;5.18;98.93;100935.97;5225379;28;20324;-80
2022/02/07 12:51:56;;;;;;;4.40;0.77;;;;;;;4.65;100.00;100939.81;5233173;28;20485;-81
2022/02/07 12:54:26;;;;;;;6.30;0.95;;;;;;;4.30;100.00;100905.53;5230053;28;20017;-81
2022/02/07 12:57:01;;;;;;;10.98;1.30;;;;;;;4.15;100.00;100929.72;5231446;28;20028;-80
2022/02/07 12:59:32;;;;;;;11.82;1.60;;;;;;;4.12;100.00;100924.56;5230939;28;20542;-82
2022/02/07 13:02:02;;;;;;;9.38;1.60;;;;;;;4.12;100.00;100914.22;5223688;28;20032;-81
2022/02/07 13:04:33;;;;;;;7.15;0.98;;;;;;;4.10;100.00;100915.94;5229316;28;20028;-81
2022/02/07 13:07:06;;;;;;;5.88;1.15;;;;;;;4.17;100.00;100917.66;5230582;28;20060;-80
2022/02/07 13:09:50;;;;;;;5.15;0.73;;;;;;;4.22;100.00;100912.44;5230983;28;20398;-80
2022/02/07 13:12:37;;;;;;;4.53;0.88;;;;;;;4.25;100.00;100921.06;5232837;28;20028;-80
2022/02/07 13:15:12;;;;;;;7.80;1.58;;;;;;;4.46;100.00;100923.53;5227813;28;20025;-80
2022/02/07 13:17:49;;;;;;;4.55;1.00;;;;;;;4.56;98.15;100925.22;5231405;28;20086;-80
2022/02/07 13:20:21;;;;;;;6.72;1.50;;;;;;;4.71;94.91;100937.19;5229791;28;20037;-79
2022/02/07 13:23:05;;;;;;;8.68;1.00;;;;;;;4.86;94.69;100937.09;5232480;28;20085;-80
2022/02/07 13:25:48;;;;;;;6.47;1.00;;;;;;;4.98;93.31;100931.84;5228509;28;20028;-80
2022/02/07 13:28:24;;;;;;;11.45;1.40;;;;;;;5.08;93.22;100934.34;5226079;28;20085;-81
2022/02/07 13:30:56;;;;;;;12.18;1.23;;;;;;;5.23;92.04;100954.06;5223934;28;20017;-82
2022/02/07 13:33:27;;;;;;;10.30;1.80;;;;;;;5.31;90.44;100967.84;5222747;28;20043;-83
2022/02/07 13:35:59;;;;;;;8.73;1.15;;;;;;;5.32;90.31;100985.09;5232044;28;20060;-80
2022/02/07 13:38:29;;;;;;;13.25;1.70;;;;;;;5.45;90.92;100992.75;5229632;28;20029;-81
2022/02/07 13:41:00;;;;;;;6.03;1.30;;;;;;;5.41;90.25;100993.66;5231363;28;20098;-81
2022/02/07 13:43:32;;;;;;;13.38;1.88;;;;;;;5.38;91.10;101017.00;5229303;28;20025;-81
2022/02/07 13:46:05;;;;;;;12.73;1.45;;;;;;;5.38;91.69;101004.06;5231286;28;20025;-81
2022/02/07 13:48:35;;;;;;;6.78;1.30;;;;;;;5.39;91.96;101029.09;5230357;28;20036;-80
2022/02/07 13:51:05;;;;;;;5.85;1.25;;;;;;;5.38;91.59;101017.00;5230116;28;20032;-83
2022/02/07 13:53:38;;;;;;;8.05;1.00;;;;;;;5.49;92.87;101033.31;5230415;28;20021;-82
2022/02/07 13:56:08;;;;;;;9.98;1.27;;;;;;;5.54;92.83;101036.75;5230853;28;20033;-80
2022/02/07 13:58:40;;;;;;;11.43;1.85;;;;;;;5.51;92.62;101041.94;5231587;28;20029;-81
2022/02/07 14:01:14;;;;;;;4.97;1.00;;;;;;;5.45;92.61;101060.13;5233131;28;20036;-80
2022/02/07 14:03:48;;;;;;;8.25;1.38;;;;;;;5.39;94.47;101065.38;5235247;28;20024;-83
2022/02/07 14:06:20;;;;;;;7.32;0.98;;;;;;;5.50;95.39;101058.38;5233338;28;20056;-80
2022/02/07 14:08:54;;;;;;;8.80;1.80;;;;;;;5.62;95.40;101074.72;5236271;28;20028;-80